createdAt,value
2017-08-28T00:01:15.114Z,12.90
2017-08-28T00:03:42.770Z,12.00
2017-08-28T00:06:10.414Z,9.60
2017-08-28T00:08:38.010Z,10.57
2017-08-28T00:11:05.649Z,13.80
2017-08-28T00:13:33.263Z,9.43
2017-08-28T00:18:59.990Z,9.50
2017-08-28T00:21:27.646Z,9.53
2017-08-28T00:23:55.242Z,8.90
2017-08-28T00:26:22.825Z,10.17
2017-08-28T00:28:50.442Z,14.63
2017-08-28T00:31:18.075Z,14.20
2017-08-28T00:33:45.769Z,9.60
2017-08-28T00:36:15.503Z,11.73
2017-08-28T00:38:43.226Z,10.33
2017-08-28T00:41:11.006Z,12.67
2017-08-28T00:43:38.740Z,9.97
2017-08-28T00:46:06.489Z,12.97
2017-08-28T00:48:34.100Z,11.53
2017-08-28T00:51:01.816Z,11.70
2017-08-28T00:53:29.540Z,12.40
2017-08-28T00:55:57.131Z,15.27
2017-08-28T00:58:24.871Z,10.50
2017-08-28T01:00:52.475Z,11.50
2017-08-28T01:03:20.110Z,10.07
2017-08-28T01:09:02.316Z,11.77
2017-08-28T01:11:30.017Z,11.13
2017-08-28T01:13:57.662Z,11.00
2017-08-28T01:16:25.371Z,15.60
2017-08-28T01:18:53.048Z,13.10
2017-08-28T01:21:20.674Z,12.03
2017-08-28T01:23:48.377Z,12.27
2017-08-28T01:26:17.074Z,12.67
2017-08-28T01:28:44.665Z,11.30
2017-08-28T01:31:12.316Z,10.53
2017-08-28T01:33:39.991Z,13.80
2017-08-28T01:36:07.643Z,13.87
2017-08-28T01:38:35.290Z,19.37
2017-08-28T01:41:02.917Z,11.93
2017-08-28T01:43:30.608Z,12.33
2017-08-28T01:45:58.253Z,13.67
2017-08-28T01:48:25.918Z,13.87
2017-08-28T01:50:53.654Z,14.50
2017-08-28T01:53:21.267Z,12.63
2017-08-28T01:55:48.959Z,14.17
2017-08-28T01:58:16.583Z,15.33
2017-08-28T02:00:44.191Z,16.70
2017-08-28T02:03:11.842Z,15.13
2017-08-28T02:05:39.457Z,13.87
2017-08-28T02:08:07.075Z,12.40
2017-08-28T02:10:34.730Z,15.70
2017-08-28T02:13:02.352Z,13.63
2017-08-28T02:15:30.175Z,14.30
2017-08-28T02:17:57.799Z,18.80
2017-08-28T02:20:25.450Z,18.37
2017-08-28T02:23:14.927Z,12.80
2017-08-28T02:25:42.534Z,13.20
2017-08-28T02:28:10.190Z,13.97
2017-08-28T02:30:37.842Z,14.23
2017-08-28T02:33:05.538Z,12.93
2017-08-28T02:35:33.148Z,14.17
2017-08-28T02:38:04.463Z,13.70
2017-08-28T02:40:32.062Z,11.50
2017-08-28T02:43:00.755Z,14.63
2017-08-28T02:45:28.458Z,16.20
2017-08-28T02:47:59.547Z,12.30
2017-08-28T02:50:27.208Z,12.93
2017-08-28T02:52:54.851Z,12.70
2017-08-28T02:55:22.541Z,11.73
2017-08-28T02:57:50.255Z,12.63
2017-08-28T03:00:17.895Z,16.33
2017-08-28T03:02:45.516Z,15.40
2017-08-28T03:05:13.217Z,15.87
2017-08-28T03:07:40.847Z,15.33
2017-08-28T03:10:08.522Z,14.83
2017-08-28T03:12:40.976Z,15.40
2017-08-28T03:15:08.722Z,14.17
2017-08-28T03:17:36.385Z,19.27
2017-08-28T03:20:04.031Z,21.73
2017-08-28T03:22:31.662Z,20.43
2017-08-28T03:24:59.342Z,20.40
2017-08-28T03:27:27.089Z,27.43
2017-08-28T03:29:54.747Z,18.13
2017-08-28T03:32:22.431Z,19.03
2017-08-28T03:34:50.039Z,23.30
2017-08-28T03:37:17.686Z,27.80
2017-08-28T03:39:45.302Z,20.67
2017-08-28T03:42:14.097Z,18.47
2017-08-28T03:44:41.749Z,22.50
2017-08-28T03:47:09.379Z,23.90
2017-08-28T03:49:36.981Z,16.53
2017-08-28T03:52:04.646Z,20.03
2017-08-28T03:54:32.262Z,25.27
2017-08-28T03:56:59.856Z,23.80
2017-08-28T03:59:27.527Z,18.97
2017-08-28T04:01:55.128Z,21.40
2017-08-28T04:04:22.779Z,22.80
2017-08-28T04:06:50.428Z,19.00
2017-08-28T04:09:18.067Z,23.97
2017-08-28T04:11:45.639Z,18.80
2017-08-28T04:14:13.247Z,25.27
2017-08-28T04:16:44.459Z,23.57
2017-08-28T04:19:12.036Z,21.23
2017-08-28T04:21:39.674Z,24.03
2017-08-28T04:24:07.287Z,18.73
2017-08-28T04:26:34.871Z,18.47
2017-08-28T04:29:02.539Z,22.40
2017-08-28T04:31:30.139Z,21.60
2017-08-28T04:33:57.738Z,17.13
2017-08-28T04:36:25.419Z,16.43
2017-08-28T04:38:53.036Z,17.77
2017-08-28T04:41:20.617Z,16.80
2017-08-28T04:43:48.324Z,16.80
2017-08-28T04:46:15.952Z,21.67
2017-08-28T04:48:43.545Z,22.93
2017-08-28T04:51:11.189Z,14.90
2017-08-28T04:53:38.760Z,20.23
2017-08-28T04:56:06.350Z,17.63
2017-08-28T04:58:34.007Z,18.33
2017-08-28T05:01:07.537Z,22.07
2017-08-28T05:03:45.235Z,16.37
2017-08-28T05:06:12.839Z,18.33
2017-08-28T05:08:53.640Z,20.67
2017-08-28T05:11:21.234Z,18.67
2017-08-28T05:13:48.877Z,14.47
2017-08-28T05:16:23.407Z,17.07
2017-08-28T05:18:54.701Z,19.40
2017-08-28T05:21:22.278Z,14.23
2017-08-28T05:23:50.039Z,13.87
2017-08-28T05:26:17.711Z,14.83
2017-08-28T05:28:45.350Z,13.27
2017-08-28T05:31:13.016Z,18.27
2017-08-28T05:33:40.614Z,16.63
2017-08-28T05:36:08.295Z,19.50
2017-08-28T05:38:35.909Z,11.13
2017-08-28T05:41:03.528Z,14.47
2017-08-28T05:43:31.233Z,11.97
2017-08-28T05:45:58.873Z,11.63
2017-08-28T05:48:26.470Z,15.10
2017-08-28T05:50:54.121Z,12.97
2017-08-28T05:53:21.749Z,14.97
2017-08-28T05:55:49.428Z,9.93
2017-08-28T05:58:17.098Z,12.13
2017-08-28T06:00:44.834Z,8.27
2017-08-28T06:03:12.404Z,8.60
2017-08-28T06:05:40.003Z,13.13
2017-08-28T06:08:07.657Z,11.93
2017-08-28T06:10:39.244Z,14.13
2017-08-28T06:13:06.908Z,10.63
2017-08-28T06:15:34.513Z,8.50
2017-08-28T06:18:02.109Z,9.20
2017-08-28T06:20:29.759Z,9.80
2017-08-28T06:22:57.341Z,8.40
2017-08-28T06:25:24.957Z,11.97
2017-08-28T06:27:52.664Z,10.40
2017-08-28T06:30:20.245Z,12.37
2017-08-28T06:32:47.965Z,9.30
2017-08-28T06:35:15.616Z,9.53
2017-08-28T06:37:43.302Z,10.83
2017-08-28T06:40:10.904Z,6.80
2017-08-28T06:42:38.528Z,8.70
2017-08-28T06:45:06.118Z,7.80
2017-08-28T06:47:33.706Z,9.30
2017-08-28T06:50:01.361Z,10.63
2017-08-28T06:52:28.939Z,6.40
2017-08-28T06:54:56.519Z,16.03
2017-08-28T06:57:24.160Z,10.50
2017-08-28T06:59:51.820Z,9.60
2017-08-28T07:02:19.434Z,7.97
2017-08-28T07:04:47.052Z,6.93
2017-08-28T07:07:14.772Z,9.67
2017-08-28T07:09:42.540Z,8.63
2017-08-28T07:12:10.125Z,9.70
2017-08-28T07:14:37.726Z,6.10
2017-08-28T07:17:05.397Z,5.57
2017-08-28T07:19:33.095Z,7.23
2017-08-28T07:22:00.717Z,9.57
2017-08-28T07:24:28.341Z,7.90
2017-08-28T07:26:56.028Z,7.63
2017-08-28T07:29:23.632Z,8.13
2017-08-28T07:31:51.446Z,11.20
2017-08-28T07:34:19.079Z,7.23
2017-08-28T07:36:46.697Z,5.33
2017-08-28T07:39:14.373Z,5.87
2017-08-28T07:41:41.987Z,7.78
2017-08-28T07:44:09.613Z,4.83
2017-08-28T07:46:37.213Z,9.63
2017-08-28T07:49:04.881Z,5.97
2017-08-28T07:51:32.488Z,5.28
2017-08-28T07:54:00.069Z,5.95
2017-08-28T07:56:27.726Z,7.75
2017-08-28T07:58:55.400Z,4.68
2017-08-28T08:01:22.984Z,16.10
2017-08-28T08:03:50.668Z,5.10
2017-08-28T08:06:18.323Z,5.20
2017-08-28T08:08:45.917Z,11.27
2017-08-28T08:11:13.652Z,8.40
2017-08-28T08:13:41.298Z,11.80
2017-08-28T08:16:08.895Z,13.40
2017-08-28T08:18:36.570Z,7.75
2017-08-28T08:21:04.226Z,10.25
2017-08-28T08:23:31.850Z,57.15
2017-08-28T08:25:59.574Z,45.75
2017-08-28T08:28:27.974Z,5.05
2017-08-28T08:30:55.654Z,27.42
2017-08-28T08:33:29.178Z,10.23
2017-08-28T08:35:56.855Z,6.78
2017-08-28T08:38:24.469Z,8.85
2017-08-28T08:40:53.237Z,6.10
2017-08-28T08:43:20.846Z,6.30
2017-08-28T08:45:48.486Z,11.10
2017-08-28T08:48:16.098Z,15.13
2017-08-28T08:50:43.677Z,8.00
2017-08-28T08:53:11.361Z,6.90
2017-08-28T08:55:38.995Z,13.38
2017-08-28T08:58:06.563Z,8.85
2017-08-28T09:00:34.289Z,6.75
2017-08-28T09:03:01.950Z,19.35
2017-08-28T09:05:29.557Z,8.95
2017-08-28T09:07:57.251Z,9.30
2017-08-28T09:10:24.954Z,45.17
2017-08-28T09:12:52.581Z,12.32
2017-08-28T09:15:20.214Z,11.35
2017-08-28T09:17:47.833Z,5.00
2017-08-28T09:20:15.482Z,9.18
2017-08-28T09:22:43.153Z,9.65
2017-08-28T09:25:10.885Z,7.65
2017-08-28T09:27:38.593Z,15.80
2017-08-28T09:30:06.279Z,12.07
2017-08-28T09:32:33.951Z,11.93
2017-08-28T09:35:01.583Z,9.38
2017-08-28T09:37:29.185Z,11.45
2017-08-28T09:39:56.796Z,12.65
2017-08-28T09:42:24.434Z,9.10
2017-08-28T09:44:52.083Z,8.93
2017-08-28T09:47:19.750Z,9.90
2017-08-28T09:49:47.357Z,15.93
2017-08-28T09:52:14.966Z,15.55
2017-08-28T09:54:42.565Z,9.48
2017-08-28T09:57:10.213Z,11.80
2017-08-28T09:59:37.852Z,8.00
2017-08-28T10:02:06.719Z,8.60
2017-08-28T10:04:34.319Z,8.57
2017-08-28T10:07:01.908Z,8.68
2017-08-28T10:09:29.496Z,9.00
2017-08-28T10:11:57.114Z,8.32
2017-08-28T10:14:24.683Z,10.68
2017-08-28T10:16:52.378Z,8.25
2017-08-28T10:19:20.042Z,10.63
2017-08-28T10:21:47.643Z,12.65
2017-08-28T10:24:15.250Z,10.10
2017-08-28T10:26:42.364Z,12.37
2017-08-28T10:29:09.927Z,10.03
2017-08-28T10:31:44.508Z,8.53
2017-08-28T10:34:12.076Z,12.83
2017-08-28T10:36:39.685Z,13.03
2017-08-28T10:39:07.352Z,10.20
2017-08-28T10:41:34.977Z,13.03
2017-08-28T10:44:02.568Z,13.60
2017-08-28T10:46:31.363Z,9.70
2017-08-28T10:48:58.943Z,11.90
2017-08-28T10:51:27.469Z,12.47
2017-08-28T10:53:55.105Z,15.30
2017-08-28T10:56:22.795Z,16.87
2017-08-28T10:58:50.396Z,18.43
2017-08-28T11:01:18.023Z,16.73
2017-08-28T11:03:45.655Z,15.03
2017-08-28T11:06:13.276Z,10.73
2017-08-28T11:08:40.869Z,17.80
2017-08-28T11:11:08.499Z,15.80
2017-08-28T11:13:36.221Z,13.67
2017-08-28T11:16:03.881Z,14.47
2017-08-28T11:18:31.506Z,18.60
2017-08-28T11:20:59.111Z,16.57
2017-08-28T11:23:26.787Z,17.03
2017-08-28T11:25:54.391Z,17.57
2017-08-28T11:28:22.044Z,18.90
2017-08-28T11:30:49.723Z,14.57
2017-08-28T11:33:17.373Z,15.20
2017-08-28T11:35:44.981Z,17.33
2017-08-28T11:38:12.796Z,19.40
2017-08-28T11:40:40.398Z,16.17
2017-08-28T11:43:08.002Z,23.33
2017-08-28T11:45:35.636Z,16.90
2017-08-28T11:48:03.258Z,21.57
2017-08-28T11:50:31.004Z,18.57
2017-08-28T11:52:58.642Z,22.40
2017-08-28T11:55:26.322Z,17.37
2017-08-28T11:57:53.908Z,17.40
2017-08-28T12:00:21.574Z,13.73
2017-08-28T12:02:49.213Z,19.13
2017-08-28T12:05:16.942Z,18.50
2017-08-28T12:07:44.548Z,12.40
2017-08-28T12:10:12.190Z,19.03
2017-08-28T12:12:39.836Z,13.70
2017-08-28T12:15:07.447Z,21.40
2017-08-28T12:17:35.107Z,16.10
2017-08-28T12:20:02.750Z,22.83
2017-08-28T12:22:30.387Z,14.83
2017-08-28T12:24:58.022Z,16.97
2017-08-28T12:27:25.641Z,26.37
2017-08-28T12:29:53.220Z,17.20
2017-08-28T12:32:20.862Z,23.80
2017-08-28T12:34:48.495Z,17.80
2017-08-28T12:37:16.165Z,18.93
2017-08-28T12:40:00.925Z,18.20
2017-08-28T12:42:28.576Z,17.47
2017-08-28T12:44:56.195Z,18.90
2017-08-28T12:47:23.958Z,17.70
2017-08-28T12:49:51.597Z,24.60
2017-08-28T12:52:19.248Z,15.20
2017-08-28T12:55:06.546Z,25.10
2017-08-28T12:57:35.016Z,15.20
2017-08-28T13:00:02.680Z,17.43
2017-08-28T13:02:30.378Z,22.13
2017-08-28T13:04:57.968Z,20.70
2017-08-28T13:07:25.627Z,26.00
2017-08-28T13:09:55.040Z,20.43
2017-08-28T13:12:26.296Z,23.00
2017-08-28T13:14:53.988Z,23.40
2017-08-28T13:17:21.597Z,15.13
2017-08-28T13:19:50.002Z,16.17
2017-08-28T13:22:17.627Z,14.40
2017-08-28T13:24:45.364Z,18.47
2017-08-28T13:27:12.953Z,17.30
2017-08-28T13:29:40.637Z,19.10
2017-08-28T13:32:08.280Z,28.70
2017-08-28T13:34:35.900Z,18.73
2017-08-28T13:37:03.548Z,15.30
2017-08-28T13:39:31.163Z,17.70
2017-08-28T13:41:58.813Z,15.20
2017-08-28T13:44:26.545Z,21.57
2017-08-28T13:46:54.231Z,21.37
2017-08-28T13:49:21.857Z,17.43
2017-08-28T13:51:49.477Z,25.40
2017-08-28T13:54:17.191Z,25.17
2017-08-28T13:56:44.819Z,39.10
2017-08-28T13:59:12.422Z,34.70
2017-08-28T14:01:40.062Z,27.97
2017-08-28T14:04:07.778Z,28.53
2017-08-28T14:06:35.389Z,17.70
2017-08-28T14:09:03.036Z,38.87
2017-08-28T14:11:30.768Z,23.03
2017-08-28T14:13:58.398Z,21.00
2017-08-28T14:16:26.010Z,20.33
2017-08-28T14:18:53.691Z,21.73
2017-08-28T14:21:21.326Z,21.23
2017-08-28T14:23:48.925Z,16.17
2017-08-28T14:26:16.661Z,23.13
2017-08-28T14:28:44.250Z,18.83
2017-08-28T14:31:11.877Z,22.57
2017-08-28T14:33:39.524Z,17.93
2017-08-28T14:36:07.158Z,19.77
2017-08-28T14:38:34.776Z,18.20
2017-08-28T14:41:02.412Z,21.70
2017-08-28T14:43:30.044Z,20.07
2017-08-28T14:45:57.700Z,28.43
2017-08-28T14:48:25.283Z,15.70
2017-08-28T14:50:52.906Z,24.10
2017-08-28T14:53:20.537Z,17.30
2017-08-28T14:55:48.164Z,13.60
2017-08-28T14:58:15.807Z,23.43
2017-08-28T15:00:43.532Z,26.90
2017-08-28T15:03:11.140Z,15.33
2017-08-28T15:05:38.770Z,16.13
2017-08-28T15:08:06.479Z,18.37
2017-08-28T15:10:34.107Z,20.37
2017-08-28T15:13:01.718Z,18.87
2017-08-28T15:15:29.415Z,18.40
2017-08-28T15:17:57.131Z,23.83
2017-08-28T15:20:24.719Z,22.50
2017-08-28T15:22:52.355Z,23.50
2017-08-28T15:25:20.025Z,16.53
2017-08-28T15:27:47.680Z,18.77
2017-08-28T15:30:15.917Z,20.73
2017-08-28T15:32:43.656Z,21.17
2017-08-28T15:35:11.323Z,21.33
2017-08-28T15:37:38.936Z,20.10
2017-08-28T15:40:06.574Z,17.83
2017-08-28T15:42:34.191Z,21.57
2017-08-28T15:45:01.831Z,20.63
2017-08-28T15:47:29.479Z,22.67
2017-08-28T15:49:57.100Z,20.07
2017-08-28T15:52:24.703Z,16.70
2017-08-28T15:54:52.394Z,17.70
2017-08-28T15:57:19.977Z,28.57
2017-08-28T15:59:47.576Z,17.00
2017-08-28T16:02:15.258Z,27.57
2017-08-28T16:04:42.874Z,30.40
2017-08-28T16:07:10.489Z,20.70
2017-08-28T16:09:38.130Z,23.20
2017-08-28T16:12:05.764Z,22.20
2017-08-28T16:14:33.457Z,17.53
2017-08-28T16:17:01.122Z,18.90
2017-08-28T16:19:28.737Z,18.00
2017-08-28T16:21:56.410Z,27.97
2017-08-28T16:24:24.075Z,28.83
2017-08-28T16:26:51.686Z,33.60
2017-08-28T16:29:19.326Z,17.97
2017-08-28T16:31:46.950Z,19.93
2017-08-28T16:34:14.630Z,20.30
2017-08-28T16:36:42.328Z,21.73
2017-08-28T16:39:09.995Z,17.13
2017-08-28T16:41:37.638Z,17.50
2017-08-28T16:44:05.268Z,22.30
2017-08-28T16:46:32.864Z,18.83
2017-08-28T16:49:00.487Z,16.07
2017-08-28T16:51:28.093Z,24.33
2017-08-28T16:53:55.705Z,17.00
2017-08-28T16:56:23.396Z,18.50
2017-08-28T16:58:51.003Z,17.10
2017-08-28T17:01:18.660Z,18.67
2017-08-28T17:03:46.319Z,18.17
2017-08-28T17:06:13.954Z,32.17
2017-08-28T17:08:41.586Z,31.67
2017-08-28T17:11:09.295Z,16.63
2017-08-28T17:13:36.939Z,18.40
2017-08-28T17:16:04.550Z,20.03
2017-08-28T17:18:32.309Z,19.93
2017-08-28T17:20:59.937Z,19.17
2017-08-28T17:23:27.638Z,21.33
2017-08-28T17:25:55.343Z,19.13
2017-08-28T17:28:23.092Z,21.07
2017-08-28T17:30:50.754Z,26.47
2017-08-28T17:33:18.390Z,18.70
2017-08-28T17:35:46.029Z,22.97
2017-08-28T17:38:13.683Z,18.63
2017-08-28T17:40:41.264Z,22.90
2017-08-28T17:43:08.935Z,27.03
2017-08-28T17:45:36.626Z,16.03
2017-08-28T17:48:04.239Z,17.77
2017-08-28T17:50:31.870Z,16.33
2017-08-28T17:52:59.518Z,14.97
2017-08-28T17:55:27.120Z,21.50
2017-08-28T17:57:54.764Z,17.37
2017-08-28T18:00:22.460Z,24.03
2017-08-28T18:02:50.102Z,16.10
2017-08-28T18:05:17.737Z,24.50
2017-08-28T18:07:46.215Z,27.17
2017-08-28T18:10:13.836Z,19.70
2017-08-28T18:12:41.480Z,20.30
2017-08-28T18:15:09.133Z,22.63
2017-08-28T18:17:36.783Z,20.40
2017-08-28T18:20:04.450Z,26.07
2017-08-28T18:22:32.040Z,23.43
2017-08-28T18:24:59.749Z,30.67
2017-08-28T18:27:27.474Z,24.57
2017-08-28T18:29:55.069Z,34.07
2017-08-28T18:32:22.714Z,23.43
2017-08-28T18:34:50.398Z,18.50
2017-08-28T18:37:18.058Z,21.87
2017-08-28T18:39:45.687Z,21.73
2017-08-28T18:42:13.289Z,21.00
2017-08-28T18:44:40.996Z,22.80
2017-08-28T18:47:09.227Z,23.27
2017-08-28T18:49:37.129Z,25.53
2017-08-28T18:52:04.910Z,23.80
2017-08-28T18:54:32.683Z,21.23
2017-08-28T18:57:00.536Z,20.57
2017-08-28T18:59:28.485Z,26.40
2017-08-28T19:01:56.192Z,29.47
2017-08-28T19:04:24.127Z,26.87
2017-08-28T19:06:52.133Z,28.53
2017-08-28T19:09:19.943Z,26.03
2017-08-28T19:11:47.723Z,24.43
2017-08-28T19:14:15.633Z,28.83
2017-08-28T19:16:43.420Z,29.20
2017-08-28T19:19:11.224Z,35.70
2017-08-28T19:21:39.101Z,30.77
2017-08-28T19:24:06.837Z,28.37
2017-08-28T19:26:34.542Z,32.40
2017-08-28T19:29:02.212Z,38.27
2017-08-28T19:31:29.878Z,33.20
2017-08-28T19:34:01.985Z,33.27
2017-08-28T19:36:29.692Z,37.17
2017-08-28T19:38:57.369Z,32.40
2017-08-28T19:41:25.090Z,29.50
2017-08-28T19:43:52.839Z,35.17
2017-08-28T19:46:20.751Z,37.23
2017-08-28T19:48:48.518Z,31.50
2017-08-28T19:51:16.135Z,30.10
2017-08-28T19:53:43.763Z,32.90
2017-08-28T19:56:11.528Z,39.70
2017-08-28T19:58:39.168Z,33.53
2017-08-28T20:01:07.023Z,42.87
2017-08-28T20:03:34.834Z,33.53
2017-08-28T20:06:02.568Z,38.83
2017-08-28T20:08:30.254Z,44.63
2017-08-28T20:10:57.906Z,40.33
2017-08-28T20:13:25.657Z,40.10
2017-08-28T20:15:53.329Z,48.03
2017-08-28T20:18:20.935Z,42.20
2017-08-28T20:20:48.572Z,38.50
2017-08-28T20:23:16.285Z,46.33
2017-08-28T20:25:43.976Z,44.83
2017-08-28T20:28:11.656Z,48.20
2017-08-28T20:30:39.284Z,45.07
2017-08-28T20:33:06.923Z,42.03
2017-08-28T20:35:34.603Z,46.80
2017-08-28T20:38:02.287Z,42.23
2017-08-28T20:40:29.908Z,64.83
2017-08-28T20:42:57.567Z,47.57
2017-08-28T20:45:25.247Z,49.87
2017-08-28T20:47:52.862Z,49.77
2017-08-28T20:50:20.598Z,52.73
2017-08-28T20:52:48.461Z,59.63
2017-08-28T20:55:16.265Z,52.80
2017-08-28T20:57:44.076Z,54.37
2017-08-28T21:00:11.816Z,54.17
2017-08-28T21:02:39.566Z,50.83
2017-08-28T21:05:07.278Z,57.63
2017-08-28T21:07:34.979Z,49.47
2017-08-28T21:10:02.668Z,50.23
2017-08-28T21:12:30.562Z,52.43
2017-08-28T21:14:58.264Z,49.50
2017-08-28T21:17:26.070Z,47.53
2017-08-28T21:19:53.827Z,42.77
2017-08-28T21:22:21.578Z,48.37
2017-08-28T21:24:49.254Z,45.97
2017-08-28T21:27:17.112Z,43.03
2017-08-28T21:29:44.756Z,52.97
2017-08-28T21:32:12.371Z,48.27
2017-08-28T21:34:40.026Z,42.37
2017-08-28T21:37:07.620Z,51.17
2017-08-28T21:39:35.237Z,53.13
2017-08-28T21:42:02.993Z,57.07
2017-08-28T21:44:30.607Z,52.20
2017-08-28T21:46:58.236Z,56.87
2017-08-28T21:49:25.892Z,57.70
2017-08-28T21:51:53.609Z,64.43
2017-08-28T21:54:21.245Z,62.30
2017-08-28T21:56:48.940Z,73.50
2017-08-28T21:59:16.740Z,59.83
2017-08-28T22:01:44.479Z,58.10
2017-08-28T22:04:12.102Z,55.60
2017-08-28T22:06:39.749Z,56.40
2017-08-28T22:09:07.483Z,55.60
2017-08-28T22:11:35.094Z,62.77
2017-08-28T22:14:02.739Z,61.87
2017-08-28T22:16:30.361Z,60.80
2017-08-28T22:18:57.958Z,62.63
2017-08-28T22:21:25.548Z,59.37
2017-08-28T22:23:53.280Z,64.07
2017-08-28T22:26:31.683Z,68.03
2017-08-28T22:28:59.451Z,61.63
2017-08-28T22:31:27.097Z,65.07
2017-08-28T22:33:54.772Z,60.10
2017-08-28T22:36:22.604Z,62.33
2017-08-28T22:38:50.295Z,61.50
2017-08-28T22:41:17.974Z,63.90
2017-08-28T22:43:45.939Z,62.13
2017-08-28T22:46:13.750Z,61.30
2017-08-28T22:48:41.819Z,63.20
2017-08-28T22:51:09.721Z,64.80
2017-08-28T22:53:37.440Z,70.60
2017-08-28T22:56:05.066Z,65.83
2017-08-28T22:58:32.704Z,67.80
2017-08-28T23:01:00.379Z,75.20
2017-08-28T23:03:28.072Z,75.30
2017-08-28T23:05:55.705Z,69.30
2017-08-28T23:08:23.342Z,65.57
2017-08-28T23:10:51.010Z,65.03
2017-08-28T23:13:18.656Z,70.97
2017-08-28T23:15:46.441Z,68.27
2017-08-28T23:18:14.176Z,63.20
2017-08-28T23:20:42.082Z,64.80
2017-08-28T23:23:09.758Z,60.10
2017-08-28T23:25:37.604Z,70.27
2017-08-28T23:28:05.284Z,66.70
2017-08-28T23:30:32.970Z,65.83
2017-08-28T23:33:00.644Z,63.27
2017-08-28T23:35:28.313Z,65.03
2017-08-28T23:37:56.191Z,71.33
2017-08-28T23:40:23.884Z,76.80
2017-08-28T23:42:51.627Z,73.17
2017-08-28T23:45:19.460Z,63.43
2017-08-28T23:47:47.175Z,64.70
2017-08-28T23:50:14.817Z,69.37
2017-08-28T23:52:42.644Z,74.43
2017-08-28T23:55:10.383Z,74.03
2017-08-28T23:57:38.088Z,69.23
